PWSweather.com
Personal Weather Stations
Station Observations
KJ4AJP
Beautiful Downtown Gardner, Martin, TN 38237

Beautiful Downtown GardnerMartin, TN 38237

Lat: 36.358, Lon: -88.8994

Elevation: 384.3

Station Type: TP1080WC

http://weather.mambm.com/

High Low Average
Temperature 54.1°F12.3°C 48.7°F9.3°C 52.4°F11.3°C
Dew Point 52.8°F11.6°C 42.5°F5.8°C 49.8°F9.9°C
Winds 9.8 mph 15.8 kmh Calm Calm 3.0 mph S4.8 kmh S
Wind Gusts 18.3 mph29.5 kmh -- 8.0 mph12.9 kmh
Humidity 99% 69% 91%
Pressure 30.27 in1025.1 mb 30.18 in1022.0 mb -
Precipitation 0.52 in13.2 mm - -
Hour Temp Dew Point Humidity Winds Wind Gusts Pressure Precip Precip Rate Daily Precip Total
12:00 AM 52.3°F11.3°C 42.5°F5.8°C 69% 3.8 mph SSE6.1 kmh SSE 13.6 mph21.9 kmh 30.26 in1024.7 mb 0.00 in0.0 mm 0.00 in0.0 mm 0.00 in0.0 mm
12:15 AM 52.7°F11.5°C 43.2°F6.2°C 70% 4.5 mph SSE7.2 kmh SSE 12.1 mph19.5 kmh 30.27 in1025.1 mb 0.00 in0.0 mm 0.00 in0.0 mm 0.00 in0.0 mm
12:30 AM 52.7°F11.5°C 43.2°F6.2°C 70% 4.5 mph S7.2 kmh S 13.6 mph21.9 kmh 30.25 in1024.4 mb 0.00 in0.0 mm 0.00 in0.0 mm 0.00 in0.0 mm
12:45 AM 52.7°F11.5°C 43.6°F6.4°C 71% 5.4 mph S8.7 kmh S 15.2 mph24.5 kmh 30.25 in1024.4 mb 0.00 in0.0 mm 0.00 in0.0 mm 0.00 in0.0 mm
01:00 AM 52.5°F11.4°C 43.8°F6.6°C 72% 4.5 mph S7.2 kmh S 13.0 mph20.9 kmh 30.26 in1024.7 mb 0.00 in0.0 mm 0.00 in0.0 mm 0.00 in0.0 mm
01:15 AM 52.2°F11.2°C 44.1°F6.7°C 74% 4.5 mph S7.2 kmh S 14.5 mph23.3 kmh 30.25 in1024.4 mb 0.00 in0.0 mm 0.00 in0.0 mm 0.00 in0.0 mm
01:30 AM 52.0°F11.1°C 44.0°F6.7°C 74% 8.3 mph S13.4 kmh S 14.5 mph23.3 kmh 30.25 in1024.4 mb 0.00 in0.0 mm 0.00 in0.0 mm 0.00 in0.0 mm
01:45 AM 52.2°F11.2°C 44.1°F6.7°C 74% 3.8 mph S6.1 kmh S 13.0 mph20.9 kmh 30.24 in1024.0 mb 0.00 in0.0 mm 0.00 in0.0 mm 0.00 in0.0 mm
02:00 AM 52.2°F11.2°C 44.5°F6.9°C 75% 4.5 mph SSE7.2 kmh SSE 13.6 mph21.9 kmh 30.25 in1024.4 mb 0.00 in0.0 mm 0.00 in0.0 mm 0.00 in0.0 mm
02:15 AM 52.3°F11.3°C 44.7°F7.1°C 75% 5.4 mph SSE8.7 kmh SSE 15.2 mph24.5 kmh 30.25 in1024.4 mb 0.00 in0.0 mm 0.00 in0.0 mm 0.00 in0.0 mm
02:30 AM 52.5°F11.4°C 44.8°F7.1°C 75% 4.5 mph SSE7.2 kmh SSE 14.5 mph23.3 kmh 30.25 in1024.4 mb 0.00 in0.0 mm 0.00 in0.0 mm 0.00 in0.0 mm
02:45 AM 52.5°F11.4°C 45.2°F7.3°C 76% 3.8 mph S6.1 kmh S 10.7 mph17.2 kmh 30.25 in1024.4 mb 0.00 in0.0 mm 0.00 in0.0 mm 0.00 in0.0 mm
03:00 AM 52.7°F11.5°C 45.4°F7.4°C 76% 6.0 mph SSE9.7 kmh SSE 12.1 mph19.5 kmh 30.24 in1024.0 mb 0.00 in0.0 mm 0.00 in0.0 mm 0.00 in0.0 mm
03:15 AM 52.9°F11.6°C 45.5°F7.5°C 76% 5.4 mph S8.7 kmh S 12.1 mph19.5 kmh 30.24 in1024.0 mb 0.00 in0.0 mm 0.00 in0.0 mm 0.00 in0.0 mm
03:30 AM 53.2°F11.8°C 45.9°F7.7°C 76% 6.9 mph S11.1 kmh S 14.5 mph23.3 kmh 30.23 in1023.7 mb 0.00 in0.0 mm 0.00 in0.0 mm 0.00 in0.0 mm
03:45 AM 53.2°F11.8°C 45.9°F7.7°C 76% 4.5 mph S7.2 kmh S 13.6 mph21.9 kmh 30.23 in1023.7 mb 0.00 in0.0 mm 0.00 in0.0 mm 0.00 in0.0 mm
04:00 AM 53.2°F11.8°C 45.9°F7.7°C 76% 3.8 mph SSE6.1 kmh SSE 15.2 mph24.5 kmh 30.22 in1023.4 mb 0.00 in0.0 mm 0.00 in0.0 mm 0.00 in0.0 mm
04:15 AM 53.4°F11.9°C 46.4°F8.0°C 77% 2.2 mph SSE3.5 kmh SSE 11.4 mph18.3 kmh 30.22 in1023.4 mb 0.00 in0.0 mm 0.00 in0.0 mm 0.00 in0.0 mm
04:30 AM 53.6°F12.0°C 46.6°F8.1°C 77% 3.8 mph SE6.1 kmh SE 13.6 mph21.9 kmh 30.21 in1023.0 mb 0.00 in0.0 mm 0.00 in0.0 mm 0.00 in0.0 mm
04:45 AM 53.6°F12.0°C 46.6°F8.1°C 77% 3.8 mph SSE6.1 kmh SSE 15.2 mph24.5 kmh 30.20 in1022.7 mb 0.00 in0.0 mm 0.00 in0.0 mm 0.00 in0.0 mm
05:00 AM 53.1°F11.7°C 46.4°F8.0°C 78% 6.9 mph S11.1 kmh S 14.5 mph23.3 kmh 30.20 in1022.7 mb 0.00 in0.0 mm 0.00 in0.0 mm 0.00 in0.0 mm
05:15 AM 52.9°F11.6°C 46.6°F8.1°C 79% 6.0 mph SSE9.7 kmh SSE 17.4 mph28.0 kmh 30.19 in1022.4 mb 0.00 in0.0 mm 0.00 in0.0 mm 0.00 in0.0 mm
05:30 AM 53.2°F11.8°C 47.2°F8.4°C 80% 9.2 mph SSE14.8 kmh SSE 15.2 mph24.5 kmh 30.19 in1022.4 mb 0.00 in0.0 mm 0.00 in0.0 mm 0.00 in0.0 mm
05:45 AM 53.4°F11.9°C 47.4°F8.6°C 80% 7.6 mph S12.2 kmh S 15.9 mph25.6 kmh 30.19 in1022.4 mb 0.00 in0.0 mm 0.00 in0.0 mm 0.00 in0.0 mm
06:00 AM 53.1°F11.7°C 47.1°F8.4°C 80% 7.6 mph SE12.2 kmh SE 15.9 mph25.6 kmh 30.19 in1022.4 mb 0.00 in0.0 mm 0.00 in0.0 mm 0.00 in0.0 mm
06:15 AM 53.1°F11.7°C 47.4°F8.6°C 81% 5.4 mph SSE8.7 kmh SSE 12.1 mph19.5 kmh 30.21 in1023.0 mb 0.00 in0.0 mm 0.00 in0.0 mm 0.00 in0.0 mm
06:30 AM 53.2°F11.8°C 47.9°F8.8°C 82% 3.8 mph SSE6.1 kmh SSE 16.8 mph27.0 kmh 30.21 in1023.0 mb 0.00 in0.0 mm 0.00 in0.0 mm 0.00 in0.0 mm
06:45 AM 53.4°F11.9°C 48.4°F9.1°C 83% 5.4 mph S8.7 kmh S 14.5 mph23.3 kmh 30.21 in1023.0 mb 0.00 in0.0 mm 0.00 in0.0 mm 0.00 in0.0 mm
07:00 AM 53.8°F12.1°C 49.1°F9.5°C 84% 6.0 mph S9.7 kmh S 16.8 mph27.0 kmh 30.20 in1022.7 mb 0.00 in0.0 mm 0.00 in0.0 mm 0.00 in0.0 mm
07:15 AM 53.8°F12.1°C 49.1°F9.5°C 84% 8.3 mph SSE13.4 kmh SSE 15.9 mph25.6 kmh 30.21 in1023.0 mb 0.00 in0.0 mm 0.00 in0.0 mm 0.00 in0.0 mm
07:30 AM 54.0°F12.2°C 49.6°F9.8°C 85% 4.5 mph SSE7.2 kmh SSE 11.4 mph18.3 kmh 30.21 in1023.0 mb 0.00 in0.0 mm 0.00 in0.0 mm 0.00 in0.0 mm
07:45 AM 54.1°F12.3°C 50.1°F10.1°C 86% 9.8 mph SSE15.8 kmh SSE 18.3 mph29.5 kmh 30.21 in1023.0 mb 0.00 in0.0 mm 0.00 in0.0 mm 0.00 in0.0 mm
08:00 AM 54.0°F12.2°C 50.5°F10.3°C 88% 3.8 mph S6.1 kmh S 15.2 mph24.5 kmh 30.21 in1023.0 mb 0.00 in0.0 mm 0.00 in0.0 mm 0.00 in0.0 mm
08:15 AM 53.6°F12.0°C 50.7°F10.4°C 90% 8.3 mph SSE13.4 kmh SSE 15.9 mph25.6 kmh 30.21 in1023.0 mb 0.00 in0.0 mm 0.00 in0.0 mm 0.00 in0.0 mm
08:30 AM 53.6°F12.0°C 51.0°F10.6°C 91% 6.9 mph S11.1 kmh S 13.6 mph21.9 kmh 30.21 in1023.0 mb 0.00 in0.0 mm 0.00 in0.0 mm 0.00 in0.0 mm
08:45 AM 53.6°F12.0°C 51.6°F10.9°C 93% 4.5 mph S7.2 kmh S 14.5 mph23.3 kmh 30.21 in1023.0 mb 0.01 in0.3 mm 0.04 in1.0 mm 0.01 in0.3 mm
09:00 AM 53.4°F11.9°C 51.5°F10.8°C 93% 7.6 mph S12.2 kmh S 16.8 mph27.0 kmh 30.21 in1023.0 mb 0.01 in0.3 mm 0.00 in0.0 mm 0.01 in0.3 mm
09:15 AM 53.1°F11.7°C 51.7°F10.9°C 95% 3.1 mph S5.0 kmh S 16.8 mph27.0 kmh 30.21 in1023.0 mb 0.05 in1.3 mm 0.16 in4.1 mm 0.05 in1.3 mm
09:30 AM 52.7°F11.5°C 51.9°F11.1°C 97% 8.3 mph S13.4 kmh S 15.9 mph25.6 kmh 30.22 in1023.4 mb 0.08 in2.0 mm 0.12 in3.0 mm 0.08 in2.0 mm
09:45 AM 52.3°F11.3°C 51.8°F11.0°C 98% 3.1 mph S5.0 kmh S 11.4 mph18.3 kmh 30.23 in1023.7 mb 0.12 in3.0 mm 0.16 in4.1 mm 0.13 in3.3 mm
10:00 AM 52.0°F11.1°C 51.7°F10.9°C 99% 3.8 mph S6.1 kmh S 8.3 mph13.4 kmh 30.23 in1023.7 mb 0.19 in4.8 mm 0.09 in2.3 mm 0.20 in5.1 mm
10:15 AM 52.0°F11.1°C 51.7°F10.9°C 99% 3.8 mph WSW6.1 kmh WSW 7.6 mph12.2 kmh 30.25 in1024.4 mb 0.24 in6.1 mm 0.20 in5.1 mm 0.28 in7.1 mm
10:30 AM 51.8°F11.0°C 51.5°F10.8°C 99% Calm Calm 3.8 mph6.1 kmh 30.25 in1024.4 mb 0.24 in6.1 mm 0.00 in0.0 mm 0.32 in8.1 mm
10:45 AM 51.8°F11.0°C 51.5°F10.8°C 99% 1.6 mph S2.6 kmh S 2.2 mph3.5 kmh 30.24 in1024.0 mb 0.21 in5.3 mm 0.00 in0.0 mm 0.34 in8.6 mm
11:00 AM 52.0°F11.1°C 51.7°F10.9°C 99% Calm Calm 3.8 mph6.1 kmh 30.24 in1024.0 mb 0.15 in3.8 mm 0.00 in0.0 mm 0.35 in8.9 mm
11:15 AM 52.0°F11.1°C 51.7°F10.9°C 99% 1.6 mph SW2.6 kmh SW 3.1 mph5.0 kmh 30.24 in1024.0 mb 0.08 in2.0 mm 0.00 in0.0 mm 0.37 in9.4 mm
11:30 AM 52.2°F11.2°C 51.9°F11.1°C 99% 0.7 mph SSW1.1 kmh SSW 3.1 mph5.0 kmh 30.23 in1023.7 mb 0.07 in1.8 mm 0.00 in0.0 mm 0.39 in9.9 mm
11:45 AM 52.3°F11.3°C 52.1°F11.2°C 99% 0.7 mph S1.1 kmh S 4.5 mph7.2 kmh 30.23 in1023.7 mb 0.06 in1.5 mm 0.00 in0.0 mm 0.40 in10.2 mm
12:00 PM 52.5°F11.4°C 52.3°F11.3°C 99% 2.2 mph S3.5 kmh S 5.4 mph8.7 kmh 30.21 in1023.0 mb 0.06 in1.5 mm 0.00 in0.0 mm 0.41 in10.4 mm
12:15 PM 52.7°F11.5°C 52.4°F11.3°C 99% 2.2 mph S3.5 kmh S 4.5 mph7.2 kmh 30.21 in1023.0 mb 0.04 in1.0 mm 0.00 in0.0 mm 0.41 in10.4 mm
12:30 PM 52.7°F11.5°C 52.4°F11.3°C 99% 2.2 mph S3.5 kmh S 4.5 mph7.2 kmh 30.20 in1022.7 mb 0.02 in0.5 mm 0.00 in0.0 mm 0.41 in10.4 mm
12:45 PM 52.9°F11.6°C 52.6°F11.4°C 99% 3.1 mph S5.0 kmh S 5.4 mph8.7 kmh 30.19 in1022.4 mb 0.02 in0.5 mm 0.00 in0.0 mm 0.43 in10.9 mm
01:00 PM 52.9°F11.6°C 52.6°F11.4°C 99% 1.6 mph SSW2.6 kmh SSW 3.8 mph6.1 kmh 30.19 in1022.4 mb 0.02 in0.5 mm 0.00 in0.0 mm 0.44 in11.2 mm
01:15 PM 53.1°F11.7°C 52.8°F11.6°C 99% 0.7 mph SW1.1 kmh SW 3.1 mph5.0 kmh 30.19 in1022.4 mb 0.02 in0.5 mm 0.00 in0.0 mm 0.44 in11.2 mm
01:30 PM 53.1°F11.7°C 52.8°F11.6°C 99% 1.6 mph SSW2.6 kmh SSW 3.1 mph5.0 kmh 30.18 in1022.0 mb 0.04 in1.0 mm 0.08 in2.0 mm 0.45 in11.4 mm
01:45 PM 53.1°F11.7°C 52.8°F11.6°C 99% Calm Calm 3.1 mph5.0 kmh 30.19 in1022.4 mb 0.05 in1.3 mm 0.04 in1.0 mm 0.47 in11.9 mm
02:00 PM 53.1°F11.7°C 52.8°F11.6°C 99% 0.7 mph S1.1 kmh S 1.6 mph2.6 kmh 30.19 in1022.4 mb 0.05 in1.3 mm 0.00 in0.0 mm 0.48 in12.2 mm
02:15 PM 53.1°F11.7°C 52.8°F11.6°C 99% Calm Calm 3.1 mph5.0 kmh 30.18 in1022.0 mb 0.06 in1.5 mm 0.04 in1.0 mm 0.50 in12.7 mm
02:30 PM 53.1°F11.7°C 52.8°F11.6°C 99% 0.7 mph S1.1 kmh S 3.1 mph5.0 kmh 30.18 in1022.0 mb 0.06 in1.5 mm 0.00 in0.0 mm 0.51 in13.0 mm
02:45 PM 53.1°F11.7°C 52.8°F11.6°C 99% Calm Calm 3.1 mph5.0 kmh 30.18 in1022.0 mb 0.04 in1.0 mm 0.00 in0.0 mm 0.51 in13.0 mm
03:00 PM 53.1°F11.7°C 52.8°F11.6°C 99% Calm Calm 2.2 mph3.5 kmh 30.18 in1022.0 mb 0.02 in0.5 mm 0.00 in0.0 mm 0.51 in13.0 mm
03:15 PM 53.1°F11.7°C 52.8°F11.6°C 99% Calm Calm 1.6 mph2.6 kmh 30.19 in1022.4 mb 0.01 in0.3 mm 0.00 in0.0 mm 0.51 in13.0 mm
03:30 PM 53.1°F11.7°C 52.8°F11.6°C 99% Calm Calm 1.6 mph2.6 kmh 30.19 in1022.4 mb 0.00 in0.0 mm 0.00 in0.0 mm 0.51 in13.0 mm
03:45 PM 53.1°F11.7°C 52.8°F11.6°C 99% 0.7 mph N1.1 kmh N 1.6 mph2.6 kmh 30.19 in1022.4 mb 0.00 in0.0 mm 0.00 in0.0 mm 0.51 in13.0 mm
04:00 PM 52.9°F11.6°C 52.6°F11.4°C 99% Calm Calm 2.2 mph3.5 kmh 30.19 in1022.4 mb 0.00 in0.0 mm 0.00 in0.0 mm 0.51 in13.0 mm
04:15 PM 52.9°F11.6°C 52.6°F11.4°C 99% Calm Calm 1.6 mph2.6 kmh 30.20 in1022.7 mb 0.00 in0.0 mm 0.00 in0.0 mm 0.51 in13.0 mm
04:30 PM 52.9°F11.6°C 52.6°F11.4°C 99% Calm Calm -- 30.19 in1022.4 mb 0.00 in0.0 mm 0.00 in0.0 mm 0.51 in13.0 mm
04:45 PM 52.7°F11.5°C 52.4°F11.3°C 99% Calm Calm 0.7 mph1.1 kmh 30.20 in1022.7 mb 0.00 in0.0 mm 0.00 in0.0 mm 0.51 in13.0 mm
05:00 PM 52.7°F11.5°C 52.4°F11.3°C 99% Calm Calm -- 30.20 in1022.7 mb 0.01 in0.3 mm 0.01 in0.3 mm 0.52 in13.2 mm
05:15 PM 52.5°F11.4°C 52.3°F11.3°C 99% Calm Calm 0.7 mph1.1 kmh 30.21 in1023.0 mb 0.01 in0.3 mm 0.00 in0.0 mm 0.52 in13.2 mm
05:30 PM 52.3°F11.3°C 52.1°F11.2°C 99% Calm Calm 1.6 mph2.6 kmh 30.21 in1023.0 mb 0.01 in0.3 mm 0.00 in0.0 mm 0.52 in13.2 mm
05:45 PM 52.3°F11.3°C 52.1°F11.2°C 99% 0.7 mph ENE1.1 kmh ENE 1.6 mph2.6 kmh 30.21 in1023.0 mb 0.01 in0.3 mm 0.00 in0.0 mm 0.52 in13.2 mm
06:00 PM 52.2°F11.2°C 51.9°F11.1°C 99% Calm Calm 1.6 mph2.6 kmh 30.21 in1023.0 mb 0.00 in0.0 mm 0.00 in0.0 mm 0.52 in13.2 mm
06:15 PM 52.0°F11.1°C 51.7°F10.9°C 99% 0.7 mph N1.1 kmh N 2.2 mph3.5 kmh 30.22 in1023.4 mb 0.00 in0.0 mm 0.00 in0.0 mm 0.52 in13.2 mm
06:30 PM 52.0°F11.1°C 51.7°F10.9°C 99% 1.6 mph N2.6 kmh N 5.4 mph8.7 kmh 30.22 in1023.4 mb 0.00 in0.0 mm 0.00 in0.0 mm 0.52 in13.2 mm
06:45 PM 52.0°F11.1°C 51.7°F10.9°C 99% Calm Calm 3.8 mph6.1 kmh 30.22 in1023.4 mb 0.00 in0.0 mm 0.00 in0.0 mm 0.52 in13.2 mm
07:00 PM 51.8°F11.0°C 51.5°F10.8°C 99% 1.6 mph NNE2.6 kmh NNE 3.8 mph6.1 kmh 30.21 in1023.0 mb 0.00 in0.0 mm 0.00 in0.0 mm 0.52 in13.2 mm
07:15 PM 51.8°F11.0°C 51.5°F10.8°C 99% Calm Calm 3.8 mph6.1 kmh 30.22 in1023.4 mb 0.00 in0.0 mm 0.00 in0.0 mm 0.52 in13.2 mm
07:30 PM 51.8°F11.0°C 51.5°F10.8°C 99% 0.7 mph N1.1 kmh N 3.8 mph6.1 kmh 30.23 in1023.7 mb 0.00 in0.0 mm 0.00 in0.0 mm 0.52 in13.2 mm
07:45 PM 51.6°F10.9°C 51.4°F10.8°C 99% 1.6 mph N2.6 kmh N 4.5 mph7.2 kmh 30.23 in1023.7 mb 0.00 in0.0 mm 0.00 in0.0 mm 0.52 in13.2 mm
08:00 PM 51.6°F10.9°C 51.4°F10.8°C 99% 4.5 mph N7.2 kmh N 7.6 mph12.2 kmh 30.24 in1024.0 mb 0.00 in0.0 mm 0.00 in0.0 mm 0.52 in13.2 mm
08:15 PM 51.4°F10.8°C 51.2°F10.7°C 99% 0.7 mph N1.1 kmh N 7.6 mph12.2 kmh 30.24 in1024.0 mb 0.00 in0.0 mm 0.00 in0.0 mm 0.52 in13.2 mm
08:30 PM 51.4°F10.8°C 51.2°F10.7°C 99% 2.2 mph N3.5 kmh N 4.5 mph7.2 kmh 30.24 in1024.0 mb 0.00 in0.0 mm 0.00 in0.0 mm 0.52 in13.2 mm
08:45 PM 51.3°F10.7°C 51.0°F10.6°C 99% 3.1 mph N5.0 kmh N 8.3 mph13.4 kmh 30.24 in1024.0 mb 0.00 in0.0 mm 0.00 in0.0 mm 0.52 in13.2 mm
09:00 PM 51.1°F10.6°C 50.8°F10.4°C 99% 3.1 mph NNE5.0 kmh NNE 5.4 mph8.7 kmh 30.24 in1024.0 mb 0.00 in0.0 mm 0.00 in0.0 mm 0.52 in13.2 mm
09:15 PM 51.1°F10.6°C 50.8°F10.4°C 99% 0.7 mph NNE1.1 kmh NNE 5.4 mph8.7 kmh 30.24 in1024.0 mb 0.00 in0.0 mm 0.00 in0.0 mm 0.52 in13.2 mm
09:30 PM 50.9°F10.5°C 50.6°F10.3°C 99% 2.2 mph N3.5 kmh N 4.5 mph7.2 kmh 30.24 in1024.0 mb 0.00 in0.0 mm 0.00 in0.0 mm 0.52 in13.2 mm
09:45 PM 50.7°F10.4°C 50.5°F10.3°C 99% 2.2 mph N3.5 kmh N 6.0 mph9.7 kmh 30.24 in1024.0 mb 0.00 in0.0 mm 0.00 in0.0 mm 0.52 in13.2 mm
10:00 PM 50.4°F10.2°C 50.1°F10.1°C 99% 3.1 mph N5.0 kmh N 8.3 mph13.4 kmh 30.24 in1024.0 mb 0.00 in0.0 mm 0.00 in0.0 mm 0.52 in13.2 mm
10:15 PM 50.5°F10.3°C 50.3°F10.2°C 99% 1.6 mph NNE2.6 kmh NNE 6.0 mph9.7 kmh 30.24 in1024.0 mb 0.00 in0.0 mm 0.00 in0.0 mm 0.52 in13.2 mm
10:30 PM 50.4°F10.2°C 50.1°F10.1°C 99% 1.6 mph N2.6 kmh N 4.5 mph7.2 kmh 30.24 in1024.0 mb 0.00 in0.0 mm 0.00 in0.0 mm 0.52 in13.2 mm
10:45 PM 50.2°F10.1°C 49.9°F9.9°C 99% 2.2 mph N3.5 kmh N 7.6 mph12.2 kmh 30.24 in1024.0 mb 0.00 in0.0 mm 0.00 in0.0 mm 0.52 in13.2 mm
11:00 PM 50.0°F10.0°C 49.7°F9.8°C 99% 3.1 mph N5.0 kmh N 7.6 mph12.2 kmh 30.24 in1024.0 mb 0.00 in0.0 mm 0.00 in0.0 mm 0.52 in13.2 mm
11:15 PM 49.8°F9.9°C 49.6°F9.8°C 99% 0.7 mph N1.1 kmh N 6.0 mph9.7 kmh 30.24 in1024.0 mb 0.00 in0.0 mm 0.00 in0.0 mm 0.52 in13.2 mm
11:30 PM 49.5°F9.7°C 49.2°F9.6°C 99% 1.6 mph N2.6 kmh N 5.4 mph8.7 kmh 30.25 in1024.4 mb 0.00 in0.0 mm 0.00 in0.0 mm 0.52 in13.2 mm
11:45 PM 48.7°F9.3°C 48.5°F9.2°C 99% 2.2 mph N3.5 kmh N 4.5 mph7.2 kmh 30.25 in1024.4 mb 0.00 in0.0 mm 0.00 in0.0 mm 0.52 in13.2 mm